Time;durP1;ratioP1;P1;durP2;ratioP2;P2;SDS_P1;SDS_P2;PMS_P1;PMS_P2;Temp;Humidity;BMP_temperature;BMP_pressure;BME280_temperature;BME280_humidity;BME280_pressure;Samples;Min_cycle;Max_cycle;Signal;HPM_P1;HPM_P2
2023/09/28 00:00:59;;;;;;;0.00;0.00;;;14.00;99.90;;;;;;5092306;28;20267;-63
2023/09/28 00:03:27;;;;;;;0.00;0.00;;;14.00;99.90;;;;;;5092747;28;20295;-63
2023/09/28 00:05:53;;;;;;;0.00;0.00;;;14.00;99.90;;;;;;5092662;28;20652;-63
2023/09/28 00:08:19;;;;;;;0.00;0.00;;;14.00;99.90;;;;;;5092750;28;20229;-64
2023/09/28 00:10:44;;;;;;;0.00;0.00;;;14.00;99.90;;;;;;5092680;28;20180;-63
2023/09/28 00:13:10;;;;;;;0.00;0.00;;;13.90;99.90;;;;;;5092467;28;20212;-63
2023/09/28 00:15:37;;;;;;;0.00;0.00;;;13.90;99.90;;;;;;5092350;28;20611;-63
2023/09/28 00:18:03;;;;;;;0.00;0.00;;;13.90;99.90;;;;;;5092496;28;20165;-63
2023/09/28 00:20:30;;;;;;;0.03;0.03;;;13.90;99.90;;;;;;5092500;28;20176;-63
2023/09/28 00:22:56;;;;;;;0.00;0.00;;;13.90;99.90;;;;;;5092175;28;20187;-62
2023/09/28 00:25:23;;;;;;;0.00;0.00;;;13.90;99.90;;;;;;5092169;28;20180;-62
2023/09/28 00:27:50;;;;;;;0.05;0.05;;;13.90;99.90;;;;;;5091998;28;20184;-63
2023/09/28 00:30:20;;;;;;;0.10;0.10;;;13.90;99.90;;;;;;5092274;28;20262;-64
2023/09/28 00:32:50;;;;;;;0.00;0.00;;;13.90;99.90;;;;;;5092379;28;20187;-64
2023/09/28 00:35:16;;;;;;;0.00;0.00;;;13.90;99.90;;;;;;5092165;28;20195;-63
2023/09/28 00:37:42;;;;;;;0.00;0.00;;;13.90;99.90;;;;;;5091632;28;20215;-62
2023/09/28 00:40:19;;;;;;;0.35;0.35;;;13.80;99.90;;;;;;5092253;28;20203;-63
2023/09/28 00:42:49;;;;;;;0.00;0.00;;;13.80;99.90;;;;;;5092212;28;20229;-62
2023/09/28 00:45:16;;;;;;;0.00;0.00;;;13.80;99.90;;;;;;5092098;28;20544;-63
2023/09/28 00:47:42;;;;;;;0.00;0.00;;;13.80;99.90;;;;;;5091343;28;20653;-63
2023/09/28 00:50:10;;;;;;;0.00;0.00;;;13.70;99.90;;;;;;5090676;28;20548;-63
2023/09/28 00:52:41;;;;;;;0.00;0.00;;;13.80;99.90;;;;;;5091835;28;20180;-64
2023/09/28 00:55:07;;;;;;;0.00;0.00;;;13.70;99.90;;;;;;5091697;28;20207;-63
2023/09/28 00:57:34;;;;;;;0.00;0.00;;;13.70;99.90;;;;;;5091369;28;20533;-63
2023/09/28 01:00:48;;;;;;;0.00;0.00;;;13.70;99.90;;;;;;5091977;28;20631;-63
2023/09/28 01:02:51;;;;;;;0.20;0.20;;;13.70;99.90;;;;;;5087796;28;20238;-63
2023/09/28 01:05:20;;;;;;;0.00;0.00;;;13.70;99.90;;;;;;5092022;28;20191;-63
2023/09/28 01:07:47;;;;;;;0.00;0.00;;;13.70;99.90;;;;;;5091536;28;20262;-64
2023/09/28 01:10:14;;;;;;;0.00;0.00;;;13.70;99.90;;;;;;5091732;28;20250;-64
2023/09/28 01:12:41;;;;;;;0.00;0.00;;;13.70;99.90;;;;;;5091575;28;20230;-64
2023/09/28 01:15:09;;;;;;;0.00;0.00;;;13.70;99.90;;;;;;5091661;28;20222;-64
2023/09/28 01:17:36;;;;;;;0.00;0.00;;;13.70;99.90;;;;;;5091327;28;20176;-63
2023/09/28 01:20:16;;;;;;;0.00;0.00;;;13.70;99.90;;;;;;5091405;28;20187;-64
2023/09/28 01:22:42;;;;;;;0.00;0.00;;;13.70;99.90;;;;;;5091226;28;20176;-64
2023/09/28 01:25:08;;;;;;;0.00;0.00;;;13.80;99.90;;;;;;5091656;28;20176;-64
2023/09/28 01:27:34;;;;;;;0.00;0.00;;;13.80;99.90;;;;;;5091247;28;20180;-64
2023/09/28 01:29:59;;;;;;;0.00;0.00;;;13.80;99.90;;;;;;5091303;28;20321;-64
2023/09/28 01:32:25;;;;;;;0.00;0.00;;;13.80;99.90;;;;;;5089901;28;20184;-64
2023/09/28 01:34:50;;;;;;;0.00;0.00;;;13.80;99.90;;;;;;5091072;28;20228;-64
2023/09/28 01:37:19;;;;;;;0.10;0.10;;;13.80;99.90;;;;;;5091031;28;20247;-64
2023/09/28 01:39:44;;;;;;;0.00;0.00;;;13.80;99.90;;;;;;5090502;28;20192;-64
2023/09/28 01:42:10;;;;;;;0.00;0.00;;;13.80;99.90;;;;;;5091442;28;20180;-64
2023/09/28 01:44:35;;;;;;;0.00;0.00;;;13.80;99.90;;;;;;5091348;28;20639;-64
2023/09/28 01:47:01;;;;;;;0.20;0.20;;;13.70;99.90;;;;;;5091256;28;20204;-64
2023/09/28 01:49:26;;;;;;;0.32;0.32;;;13.70;99.90;;;;;;5091207;28;20262;-64
2023/09/28 01:51:52;;;;;;;0.00;0.00;;;13.70;99.90;;;;;;5090853;28;21902;-64
2023/09/28 01:54:17;;;;;;;0.00;0.00;;;13.80;99.90;;;;;;5091336;28;20220;-64
2023/09/28 01:56:43;;;;;;;0.00;0.00;;;13.80;99.90;;;;;;5090715;28;20176;-64
2023/09/28 01:59:08;;;;;;;0.00;0.00;;;13.70;99.90;;;;;;5090892;28;20199;-64
2023/09/28 02:01:34;;;;;;;0.35;0.35;;;13.80;99.90;;;;;;5090721;28;20179;-64
2023/09/28 02:03:59;;;;;;;0.00;0.00;;;13.80;99.90;;;;;;5090674;28;20180;-64
2023/09/28 02:06:25;;;;;;;0.00;0.00;;;13.80;99.90;;;;;;5090816;28;20176;-64
2023/09/28 02:08:51;;;;;;;0.00;0.00;;;13.80;99.90;;;;;;5091052;28;20187;-64
2023/09/28 02:11:16;;;;;;;0.00;0.00;;;13.80;99.90;;;;;;5090811;28;20184;-63
2023/09/28 02:13:42;;;;;;;0.00;0.00;;;13.80;99.90;;;;;;5090509;28;20271;-63
2023/09/28 02:16:11;;;;;;;0.08;0.08;;;13.80;99.90;;;;;;5090980;28;20216;-64
2023/09/28 02:18:37;;;;;;;0.10;0.10;;;13.90;99.90;;;;;;5090956;28;20237;-64
2023/09/28 02:21:03;;;;;;;0.10;0.10;;;13.80;99.90;;;;;;5091038;28;20191;-63
2023/09/28 02:23:28;;;;;;;0.32;0.32;;;13.90;99.90;;;;;;5091052;28;20186;-63
2023/09/28 02:25:54;;;;;;;0.17;0.17;;;13.90;99.90;;;;;;5090601;28;20195;-63
2023/09/28 02:28:19;;;;;;;0.22;0.20;;;13.80;99.90;;;;;;5091114;28;20569;-64
2023/09/28 02:30:45;;;;;;;0.08;0.08;;;13.90;99.90;;;;;;5090735;28;20184;-64
2023/09/28 02:33:11;;;;;;;0.00;0.00;;;13.90;99.90;;;;;;5090628;28;20208;-64
2023/09/28 02:35:37;;;;;;;0.00;0.00;;;13.90;99.90;;;;;;5090750;28;20176;-64
2023/09/28 02:38:03;;;;;;;0.00;0.00;;;13.90;99.90;;;;;;5090448;28;20227;-64
2023/09/28 02:40:29;;;;;;;0.00;0.00;;;13.90;99.90;;;;;;5090812;28;20194;-64
2023/09/28 02:42:55;;;;;;;0.00;0.00;;;13.90;99.90;;;;;;5090784;28;20187;-64
2023/09/28 02:45:21;;;;;;;0.00;0.00;;;13.90;99.90;;;;;;5090594;28;20181;-64
2023/09/28 02:47:48;;;;;;;0.20;0.20;;;13.90;99.90;;;;;;5091700;28;20187;-64
2023/09/28 02:50:16;;;;;;;0.00;0.00;;;13.90;99.90;;;;;;5092842;28;20183;-64
2023/09/28 02:52:45;;;;;;;0.00;0.00;;;13.90;99.90;;;;;;5093710;28;20180;-65
2023/09/28 02:55:12;;;;;;;0.00;0.00;;;13.80;99.90;;;;;;5096211;28;20184;-64
2023/09/28 02:57:38;;;;;;;0.00;0.00;;;13.90;99.90;;;;;;5094296;28;20637;-64
2023/09/28 03:00:18;;;;;;;0.25;0.25;;;13.90;99.90;;;;;;5094200;28;20179;-64
2023/09/28 03:02:43;;;;;;;0.88;0.43;;;13.80;99.90;;;;;;5093935;28;20179;-64
2023/09/28 03:05:10;;;;;;;0.00;0.00;;;13.80;99.90;;;;;;5094276;28;20188;-64
2023/09/28 03:07:39;;;;;;;0.00;0.00;;;13.80;99.90;;;;;;5077441;28;20647;-64
2023/09/28 03:10:05;;;;;;;0.08;0.00;;;13.80;99.90;;;;;;5094262;28;20184;-64
2023/09/28 03:12:31;;;;;;;0.10;0.10;;;13.70;99.90;;;;;;5094008;28;20198;-64
2023/09/28 03:14:56;;;;;;;0.00;0.00;;;13.80;99.90;;;;;;5093662;28;20579;-64
2023/09/28 03:17:22;;;;;;;0.17;0.17;;;13.80;99.90;;;;;;5092485;28;20195;-64
2023/09/28 03:19:47;;;;;;;0.00;0.00;;;13.80;99.90;;;;;;5092659;28;20184;-64
2023/09/28 03:22:13;;;;;;;0.00;0.00;;;13.80;99.90;;;;;;5093782;28;20191;-64
2023/09/28 03:24:39;;;;;;;0.00;0.00;;;13.80;99.90;;;;;;5073424;28;20180;-63
2023/09/28 03:27:08;;;;;;;0.00;0.00;;;13.80;99.90;;;;;;5082027;28;20186;-63
2023/09/28 03:29:33;;;;;;;0.00;0.00;;;13.80;99.90;;;;;;5093487;28;20174;-64
2023/09/28 03:31:59;;;;;;;0.00;0.00;;;13.80;99.90;;;;;;5093532;28;20172;-64
2023/09/28 03:34:24;;;;;;;0.00;0.00;;;13.80;99.90;;;;;;5093037;28;20833;-64
2023/09/28 03:36:50;;;;;;;0.00;0.00;;;13.80;99.90;;;;;;5092602;28;20233;-65
2023/09/28 03:39:16;;;;;;;0.00;0.00;;;13.80;99.90;;;;;;5093772;28;20576;-64
2023/09/28 03:41:41;;;;;;;0.25;0.25;;;13.80;99.90;;;;;;5091530;28;20267;-64
2023/09/28 03:44:07;;;;;;;0.00;0.00;;;13.80;99.90;;;;;;5093099;28;20845;-63
2023/09/28 03:46:33;;;;;;;0.00;0.00;;;13.80;99.90;;;;;;5093495;28;20168;-65
2023/09/28 03:48:58;;;;;;;0.00;0.00;;;13.80;99.90;;;;;;5093125;28;20314;-61
2023/09/28 03:51:24;;;;;;;0.00;0.00;;;13.80;99.90;;;;;;5092650;28;20176;-62
2023/09/28 03:53:49;;;;;;;0.00;0.00;;;13.80;99.90;;;;;;5093576;28;20207;-62
2023/09/28 03:56:15;;;;;;;0.00;0.00;;;13.90;99.90;;;;;;5096948;28;20184;-62
2023/09/28 03:58:41;;;;;;;0.00;0.00;;;13.80;99.90;;;;;;5093327;28;20184;-64
2023/09/28 04:01:07;;;;;;;0.00;0.00;;;13.90;99.90;;;;;;5092315;28;20530;-60
2023/09/28 04:03:35;;;;;;;0.00;0.00;;;13.90;99.90;;;;;;5092875;28;20177;-63
2023/09/28 04:06:00;;;;;;;0.00;0.00;;;13.90;99.90;;;;;;5094768;28;20226;-63
2023/09/28 04:08:26;;;;;;;0.00;0.00;;;13.80;99.90;;;;;;5092100;28;20172;-63
2023/09/28 04:10:51;;;;;;;0.00;0.00;;;13.80;99.90;;;;;;5091558;28;20699;-63
2023/09/28 04:13:17;;;;;;;0.00;0.00;;;13.80;99.90;;;;;;5092824;28;20222;-63
2023/09/28 04:15:43;;;;;;;0.20;0.20;;;13.80;99.90;;;;;;5091838;28;20176;-62
2023/09/28 04:18:08;;;;;;;0.20;0.20;;;13.80;99.90;;;;;;5093167;28;20501;-62
2023/09/28 04:20:35;;;;;;;0.10;0.10;;;13.80;99.90;;;;;;5093025;28;20184;-62
2023/09/28 04:23:05;;;;;;;0.10;0.10;;;13.80;99.90;;;;;;5091532;28;20579;-62
2023/09/28 04:25:31;;;;;;;0.00;0.00;;;13.80;99.90;;;;;;5092751;28;20248;-62
2023/09/28 04:27:57;;;;;;;0.00;0.00;;;13.80;99.90;;;;;;5092823;28;20768;-63
2023/09/28 04:30:23;;;;;;;0.00;0.00;;;13.90;99.90;;;;;;5092794;28;20180;-62
2023/09/28 04:32:50;;;;;;;0.10;0.10;;;13.90;99.90;;;;;;5092355;28;20530;-62
2023/09/28 04:35:16;;;;;;;0.08;0.08;;;13.90;99.90;;;;;;5092866;28;20262;-62
2023/09/28 04:37:42;;;;;;;0.10;0.10;;;13.90;99.90;;;;;;5092015;28;20657;-62
2023/09/28 04:40:13;;;;;;;0.00;0.00;;;13.90;99.90;;;;;;5092724;28;20180;-63
2023/09/28 04:42:38;;;;;;;0.00;0.00;;;13.90;99.90;;;;;;5092572;28;20168;-63
2023/09/28 04:45:05;;;;;;;0.00;0.00;;;13.80;99.90;;;;;;5092493;28;20176;-62
2023/09/28 04:47:30;;;;;;;0.00;0.00;;;13.90;99.90;;;;;;5092521;28;20182;-62
2023/09/28 04:49:56;;;;;;;0.00;0.00;;;13.80;99.90;;;;;;5092352;28;20270;-63
2023/09/28 04:52:22;;;;;;;0.00;0.00;;;13.90;99.90;;;;;;5091060;28;20222;-62
2023/09/28 04:54:49;;;;;;;0.00;0.00;;;13.80;99.90;;;;;;5092220;28;20254;-62
2023/09/28 04:57:15;;;;;;;0.00;0.00;;;13.80;99.90;;;;;;5092313;28;20173;-62
2023/09/28 04:59:41;;;;;;;0.00;0.00;;;13.80;99.90;;;;;;5092190;28;20179;-62
2023/09/28 05:02:07;;;;;;;0.00;0.00;;;13.80;99.90;;;;;;5092229;28;20217;-61
2023/09/28 05:04:34;;;;;;;0.00;0.00;;;13.80;99.90;;;;;;5092272;28;20235;-61
2023/09/28 05:07:00;;;;;;;0.00;0.00;;;13.80;99.90;;;;;;5092032;28;20180;-61
2023/09/28 05:09:26;;;;;;;0.00;0.00;;;13.80;99.90;;;;;;5092182;28;20183;-61
2023/09/28 05:11:53;;;;;;;0.00;0.00;;;13.80;99.90;;;;;;5092166;28;20191;-61
2023/09/28 05:14:23;;;;;;;0.00;0.00;;;13.80;99.90;;;;;;5091311;28;20877;-61
2023/09/28 05:16:50;;;;;;;0.00;0.00;;;13.80;99.90;;;;;;5092050;28;20192;-61
2023/09/28 05:19:15;;;;;;;0.00;0.00;;;13.80;99.90;;;;;;5091798;28;20541;-61
2023/09/28 05:21:41;;;;;;;0.30;0.15;;;13.80;99.90;;;;;;5091816;28;20184;-61
2023/09/28 05:24:06;;;;;;;0.00;0.00;;;13.80;99.90;;;;;;5091742;28;20182;-60
2023/09/28 05:26:32;;;;;;;0.00;0.00;;;13.80;99.90;;;;;;5092161;28;20238;-61
2023/09/28 05:28:58;;;;;;;0.00;0.00;;;13.80;99.90;;;;;;5091848;28;20176;-60
2023/09/28 05:31:24;;;;;;;0.70;0.70;;;13.90;99.90;;;;;;5092089;28;20247;-60
2023/09/28 05:33:50;;;;;;;0.00;0.00;;;13.80;99.90;;;;;;5091601;28;20199;-60
2023/09/28 05:36:15;;;;;;;0.00;0.00;;;13.80;99.90;;;;;;5091915;28;20167;-60
2023/09/28 05:38:41;;;;;;;0.00;0.00;;;13.80;99.90;;;;;;5091461;28;20659;-61
2023/09/28 05:41:07;;;;;;;0.00;0.00;;;13.90;99.90;;;;;;5091737;28;20183;-61
2023/09/28 05:43:32;;;;;;;0.10;0.00;;;13.90;99.90;;;;;;5091718;28;20180;-61
2023/09/28 05:45:58;;;;;;;0.00;0.00;;;13.90;99.90;;;;;;5091405;28;20176;-61
2023/09/28 05:48:24;;;;;;;0.43;0.43;;;13.90;99.90;;;;;;5091402;28;20266;-61
2023/09/28 05:50:50;;;;;;;0.00;0.00;;;13.90;99.90;;;;;;5091286;28;20624;-61
2023/09/28 05:53:15;;;;;;;0.22;0.22;;;13.90;99.90;;;;;;5091187;28;20214;-61
2023/09/28 05:55:41;;;;;;;0.05;0.05;;;14.00;99.90;;;;;;5091151;28;20176;-61
2023/09/28 05:58:06;;;;;;;0.00;0.00;;;14.00;99.90;;;;;;5091269;28;20624;-61
2023/09/28 06:00:32;;;;;;;0.03;0.03;;;14.00;99.90;;;;;;5091229;28;20259;-62
2023/09/28 06:02:58;;;;;;;0.00;0.00;;;14.10;99.90;;;;;;5091211;28;20173;-61
2023/09/28 06:05:23;;;;;;;0.00;0.00;;;14.10;99.90;;;;;;5090174;28;20702;-62
2023/09/28 06:07:49;;;;;;;0.00;0.00;;;14.10;99.90;;;;;;5091143;28;20172;-62
2023/09/28 06:10:15;;;;;;;0.00;0.00;;;14.20;99.90;;;;;;5091304;28;20172;-61
2023/09/28 06:12:40;;;;;;;0.00;0.00;;;14.20;99.90;;;;;;5091083;28;20172;-61
2023/09/28 06:15:07;;;;;;;0.10;0.10;;;14.30;99.90;;;;;;5091167;28;20274;-61
2023/09/28 06:17:33;;;;;;;0.00;0.00;;;14.40;99.90;;;;;;5091093;28;20180;-61
2023/09/28 06:19:58;;;;;;;0.03;0.03;;;14.50;99.90;;;;;;5091229;28;20183;-61
2023/09/28 06:22:25;;;;;;;1.05;0.28;;;14.60;99.90;;;;;;5091300;28;20176;-61
2023/09/28 06:24:50;;;;;;;0.00;0.00;;;14.70;99.90;;;;;;5093014;28;20537;-62
2023/09/28 06:27:16;;;;;;;0.00;0.00;;;14.80;99.90;;;;;;5095205;28;20175;-62
2023/09/28 06:29:41;;;;;;;0.00;0.00;;;14.90;99.90;;;;;;5095040;28;20175;-61
2023/09/28 06:32:07;;;;;;;0.00;0.00;;;15.10;99.90;;;;;;5094990;28;20182;-61
2023/09/28 06:34:32;;;;;;;0.00;0.00;;;15.10;99.90;;;;;;5095007;28;20591;-62
2023/09/28 06:36:58;;;;;;;0.00;0.00;;;15.10;99.90;;;;;;5095059;28;20180;-62
2023/09/28 06:39:23;;;;;;;0.00;0.00;;;15.10;99.90;;;;;;5094801;28;20220;-61
2023/09/28 06:41:49;;;;;;;0.00;0.00;;;15.00;99.90;;;;;;5094825;28;20643;-62
2023/09/28 06:44:14;;;;;;;0.00;0.00;;;15.00;99.90;;;;;;5094829;28;20180;-63
2023/09/28 06:46:40;;;;;;;0.00;0.00;;;15.00;99.90;;;;;;5094818;28;20172;-62
2023/09/28 06:49:08;;;;;;;0.00;0.00;;;15.00;99.90;;;;;;5094761;28;20650;-61
2023/09/28 06:51:34;;;;;;;0.00;0.00;;;15.00;99.90;;;;;;5094760;28;20234;-62
2023/09/28 06:54:00;;;;;;;0.00;0.00;;;15.30;99.90;;;;;;5094565;28;20219;-62
2023/09/28 06:56:26;;;;;;;0.00;0.00;;;15.90;99.90;;;;;;5094407;28;20179;-62
2023/09/28 06:58:52;;;;;;;0.00;0.00;;;16.60;99.90;;;;;;5094621;28;20180;-62
2023/09/28 07:01:18;;;;;;;0.00;0.00;;;17.20;99.90;;;;;;5094570;28;20183;-62
2023/09/28 07:03:43;;;;;;;0.00;0.00;;;17.90;99.90;;;;;;5094556;28;20168;-62
2023/09/28 07:06:09;;;;;;;0.00;0.00;;;18.20;99.90;;;;;;5094552;28;20179;-62
2023/09/28 07:08:35;;;;;;;0.00;0.00;;;18.60;99.90;;;;;;5094667;28;20176;-62
2023/09/28 07:11:01;;;;;;;0.00;0.00;;;19.10;99.90;;;;;;5094463;28;20176;-62
2023/09/28 07:13:27;;;;;;;0.10;0.10;;;19.60;99.90;;;;;;5094314;28;20191;-62
2023/09/28 07:15:52;;;;;;;0.00;0.00;;;20.10;99.90;;;;;;5094498;28;20623;-62
2023/09/28 07:18:18;;;;;;;0.10;0.10;;;20.60;99.90;;;;;;5094474;28;20250;-63
2023/09/28 07:20:44;;;;;;;0.00;0.00;;;20.80;99.90;;;;;;5094426;28;20534;-62
2023/09/28 07:23:09;;;;;;;0.00;0.00;;;20.70;99.90;;;;;;5094349;28;20188;-62
2023/09/28 07:25:35;;;;;;;0.00;0.00;;;20.40;99.90;;;;;;5094341;28;20225;-62
2023/09/28 07:28:01;;;;;;;0.00;0.00;;;20.10;99.90;;;;;;5094312;28;20168;-62
2023/09/28 07:30:27;;;;;;;0.00;0.00;;;19.80;99.90;;;;;;5094219;28;20213;-62
2023/09/28 07:32:52;;;;;;;0.00;0.00;;;19.50;99.90;;;;;;5094144;28;20180;-62
2023/09/28 07:35:19;;;;;;;0.00;0.00;;;19.70;99.90;;;;;;5093814;28;20184;-62
2023/09/28 07:37:45;;;;;;;0.00;0.00;;;20.00;99.90;;;;;;5093255;28;20224;-62
2023/09/28 07:40:13;;;;;;;0.00;0.00;;;20.60;99.90;;;;;;5094086;28;20587;-62
2023/09/28 07:42:44;;;;;;;0.00;0.00;;;21.20;99.90;;;;;;5093870;28;20229;-62
2023/09/28 07:45:12;;;;;;;0.00;0.00;;;21.70;99.90;;;;;;5093999;28;20230;-62
2023/09/28 07:47:41;;;;;;;0.00;0.00;;;22.20;99.90;;;;;;5093749;28;20254;-63
2023/09/28 07:50:06;;;;;;;0.00;0.00;;;22.60;99.90;;;;;;5093748;28;20176;-62
2023/09/28 07:52:32;;;;;;;0.00;0.00;;;23.10;99.90;;;;;;5093791;28;20266;-63
2023/09/28 07:54:58;;;;;;;0.00;0.00;;;23.50;99.80;;;;;;5093546;28;20836;-62
2023/09/28 07:57:23;;;;;;;0.00;0.00;;;23.90;99.20;;;;;;5093742;28;20209;-62
2023/09/28 07:59:49;;;;;;;0.00;0.00;;;24.20;98.50;;;;;;5093782;28;20179;-63
2023/09/28 08:02:15;;;;;;;0.00;0.00;;;24.40;98.20;;;;;;5093661;28;20210;-63
2023/09/28 08:04:40;;;;;;;0.00;0.00;;;24.80;97.70;;;;;;5093514;28;20264;-63
2023/09/28 08:07:06;;;;;;;0.25;0.25;;;25.10;97.00;;;;;;5093391;28;20211;-63
2023/09/28 08:09:33;;;;;;;0.10;0.10;;;25.40;96.10;;;;;;5093414;28;20259;-63
2023/09/28 08:11:58;;;;;;;0.00;0.00;;;25.60;96.00;;;;;;5093440;28;20734;-63
2023/09/28 08:14:24;;;;;;;0.00;0.00;;;25.80;95.30;;;;;;5093271;28;20306;-63
2023/09/28 08:16:50;;;;;;;0.00;0.00;;;25.80;95.30;;;;;;5093196;28;20180;-63
2023/09/28 08:19:16;;;;;;;0.38;0.10;;;25.90;95.20;;;;;;5093243;28;20179;-63
2023/09/28 08:21:42;;;;;;;0.00;0.00;;;26.10;94.50;;;;;;5093068;28;20180;-63
2023/09/28 08:24:10;;;;;;;0.15;0.15;;;26.30;94.30;;;;;;5092965;28;20195;-63
2023/09/28 08:26:36;;;;;;;0.00;0.00;;;26.50;94.10;;;;;;5093069;28;20221;-63
2023/09/28 08:29:03;;;;;;;0.00;0.00;;;26.60;93.70;;;;;;5091848;28;20262;-63
2023/09/28 08:31:30;;;;;;;0.00;0.00;;;26.70;93.80;;;;;;5092788;28;20526;-63
2023/09/28 08:33:58;;;;;;;0.08;0.08;;;26.90;93.30;;;;;;5092791;28;20242;-63
2023/09/28 08:36:24;;;;;;;0.10;0.10;;;27.10;92.60;;;;;;5092947;28;20176;-63
2023/09/28 08:38:50;;;;;;;0.10;0.00;;;27.30;92.00;;;;;;5092524;28;20247;-63
2023/09/28 08:41:24;;;;;;;0.00;0.00;;;27.40;91.40;;;;;;5092874;28;20184;-63
2023/09/28 08:44:01;;;;;;;0.00;0.00;;;27.60;90.00;;;;;;5092589;28;20285;-62
2023/09/28 08:46:30;;;;;;;0.00;0.00;;;27.70;90.10;;;;;;5092646;28;20176;-62
2023/09/28 08:49:02;;;;;;;0.00;0.00;;;27.90;90.20;;;;;;5092440;28;20182;-62
2023/09/28 08:51:29;;;;;;;0.00;0.00;;;28.10;89.30;;;;;;5092576;28;20187;-62
2023/09/28 08:53:55;;;;;;;1.35;0.20;;;28.10;85.50;;;;;;5092475;28;20279;-62
2023/09/28 08:56:21;;;;;;;0.00;0.00;;;28.30;84.70;;;;;;5092564;28;20233;-62
2023/09/28 08:58:47;;;;;;;0.00;0.00;;;28.40;83.20;;;;;;5092270;28;20540;-62
2023/09/28 09:01:13;;;;;;;0.00;0.00;;;28.40;84.10;;;;;;5092428;28;20172;-63
2023/09/28 09:03:40;;;;;;;0.08;0.08;;;28.40;83.20;;;;;;5092384;28;20172;-62
2023/09/28 09:06:08;;;;;;;0.00;0.00;;;28.30;80.20;;;;;;5092161;28;20164;-62
2023/09/28 09:08:37;;;;;;;0.00;0.00;;;28.30;79.30;;;;;;5092169;28;20644;-62
2023/09/28 09:11:03;;;;;;;0.00;0.00;;;28.20;80.40;;;;;;5092113;28;20251;-62
2023/09/28 09:13:29;;;;;;;0.00;0.00;;;28.20;79.80;;;;;;5091984;28;20196;-63
2023/09/28 09:15:55;;;;;;;0.00;0.00;;;28.10;81.50;;;;;;5092057;28;20275;-62
2023/09/28 09:18:24;;;;;;;0.00;0.00;;;28.20;82.90;;;;;;5092159;28;20259;-62
2023/09/28 09:20:56;;;;;;;0.00;0.00;;;28.30;79.70;;;;;;5092119;28;20233;-62
2023/09/28 09:23:22;;;;;;;0.00;0.00;;;28.40;80.00;;;;;;5092124;28;20663;-62
2023/09/28 09:25:48;;;;;;;0.00;0.00;;;28.50;80.90;;;;;;5091850;28;20180;-62
2023/09/28 09:28:29;;;;;;;0.00;0.00;;;28.60;79.40;;;;;;5092062;28;20187;-62
2023/09/28 09:30:55;;;;;;;0.00;0.00;;;28.60;76.10;;;;;;5091982;28;20194;-62
2023/09/28 09:33:21;;;;;;;0.00;0.00;;;28.40;77.10;;;;;;5091878;28;20325;-62
2023/09/28 09:35:47;;;;;;;0.00;0.00;;;28.50;77.80;;;;;;5091567;28;20180;-62
2023/09/28 09:38:12;;;;;;;0.05;0.05;;;28.50;77.10;;;;;;5091706;28;20227;-62
2023/09/28 09:40:38;;;;;;;0.00;0.00;;;28.60;75.90;;;;;;5091737;28;20581;-62
2023/09/28 09:43:08;;;;;;;0.20;0.20;;;28.50;74.80;;;;;;5091836;28;20180;-62
2023/09/28 09:45:40;;;;;;;0.00;0.00;;;28.20;73.40;;;;;;5091731;28;20179;-62
2023/09/28 09:48:12;;;;;;;0.00;0.00;;;28.30;75.80;;;;;;5091693;28;20184;-62
2023/09/28 09:50:38;;;;;;;0.00;0.00;;;28.40;76.60;;;;;;5090473;28;20587;-62
2023/09/28 09:53:05;;;;;;;0.00;0.00;;;28.40;76.70;;;;;;5090355;28;20176;-62
2023/09/28 09:55:32;;;;;;;0.00;0.00;;;28.60;75.90;;;;;;5091584;28;20176;-62
2023/09/28 09:58:03;;;;;;;0.00;0.00;;;28.60;76.20;;;;;;5091580;28;20186;-61
2023/09/28 10:00:37;;;;;;;0.00;0.00;;;28.40;74.90;;;;;;5090945;28;20179;-62
2023/09/28 10:03:04;;;;;;;0.00;0.00;;;28.30;75.00;;;;;;5091649;28;20202;-62
2023/09/28 10:05:32;;;;;;;0.00;0.00;;;28.40;78.20;;;;;;5091385;28;20658;-62
2023/09/28 10:07:59;;;;;;;0.00;0.00;;;28.50;77.80;;;;;;5091482;28;20180;-62
2023/09/28 10:10:28;;;;;;;0.00;0.00;;;28.50;75.20;;;;;;5091426;28;20194;-62
2023/09/28 10:12:55;;;;;;;0.03;0.03;;;28.40;76.00;;;;;;5091257;28;20217;-62
2023/09/28 10:15:21;;;;;;;0.15;0.08;;;28.40;75.60;;;;;;5091399;28;20658;-62
2023/09/28 10:17:48;;;;;;;0.00;0.00;;;28.50;76.60;;;;;;5091247;28;20180;-62
2023/09/28 10:20:15;;;;;;;0.25;0.25;;;28.40;72.20;;;;;;5091449;28;20188;-62
2023/09/28 10:22:44;;;;;;;0.00;0.00;;;28.40;73.20;;;;;;5091384;28;20168;-62
2023/09/28 10:25:12;;;;;;;0.00;0.00;;;28.50;74.40;;;;;;5091308;28;20238;-62
2023/09/28 10:27:39;;;;;;;0.00;0.00;;;28.70;75.30;;;;;;5091252;28;20187;-62
2023/09/28 10:30:18;;;;;;;0.00;0.00;;;28.60;73.50;;;;;;5091199;28;20207;-62
2023/09/28 10:32:43;;;;;;;0.00;0.00;;;28.60;72.80;;;;;;5091154;28;20207;-62
2023/09/28 10:35:28;;;;;;;0.10;0.10;;;28.80;73.10;;;;;;5091122;28;20239;-62
2023/09/28 10:38:20;;;;;;;0.00;0.00;;;28.80;72.30;;;;;;5091013;28;20262;-62
2023/09/28 10:41:01;;;;;;;0.00;0.00;;;29.10;71.30;;;;;;5090964;28;20237;-62
2023/09/28 10:43:32;;;;;;;0.00;0.00;;;29.20;71.90;;;;;;5091073;28;20172;-62
2023/09/28 10:46:07;;;;;;;0.00;0.00;;;29.10;69.90;;;;;;5091154;28;20496;-62
2023/09/28 10:48:46;;;;;;;0.00;0.00;;;29.10;69.50;;;;;;5091070;28;20187;-62
2023/09/28 10:51:16;;;;;;;0.00;0.00;;;29.00;69.60;;;;;;5091155;28;20191;-62
2023/09/28 10:53:43;;;;;;;0.00;0.00;;;28.90;68.90;;;;;;5090953;28;20257;-62
2023/09/28 10:56:10;;;;;;;0.00;0.00;;;28.90;69.40;;;;;;5090981;28;20264;-62
2023/09/28 10:58:37;;;;;;;0.00;0.00;;;28.80;69.80;;;;;;5090981;28;20745;-62
2023/09/28 11:01:07;;;;;;;0.10;0.10;;;28.70;70.10;;;;;;5091102;28;20533;-62
2023/09/28 11:03:34;;;;;;;0.00;0.00;;;28.70;70.70;;;;;;5090997;28;20267;-63
2023/09/28 11:06:09;;;;;;;0.00;0.00;;;28.80;71.30;;;;;;5091015;28;20211;-63
2023/09/28 11:08:36;;;;;;;0.00;0.00;;;28.80;69.60;;;;;;5090984;28;20180;-62
2023/09/28 11:11:03;;;;;;;0.00;0.00;;;28.70;69.80;;;;;;5091294;28;20689;-62
2023/09/28 11:13:29;;;;;;;0.00;0.00;;;28.90;70.70;;;;;;5094362;28;20216;-62
2023/09/28 11:15:55;;;;;;;0.00;0.00;;;28.90;67.60;;;;;;5094520;28;20751;-62
2023/09/28 11:18:22;;;;;;;0.00;0.00;;;28.90;69.00;;;;;;5094497;28;20274;-62
2023/09/28 11:20:48;;;;;;;0.00;0.00;;;29.10;67.50;;;;;;5094224;28;20221;-62
2023/09/28 11:23:14;;;;;;;0.00;0.00;;;29.00;67.70;;;;;;5094283;28;20175;-62
2023/09/28 11:25:42;;;;;;;0.00;0.00;;;29.10;68.30;;;;;;5094248;28;20530;-63
2023/09/28 11:28:08;;;;;;;0.00;0.00;;;29.20;68.20;;;;;;5094213;28;20195;-62
2023/09/28 11:30:33;;;;;;;0.00;0.00;;;29.20;66.10;;;;;;5094196;28;20233;-62
2023/09/28 11:33:03;;;;;;;0.00;0.00;;;29.30;67.40;;;;;;5093934;28;20176;-62
2023/09/28 11:35:34;;;;;;;0.00;0.00;;;29.40;68.00;;;;;;5093972;28;20215;-62
2023/09/28 11:38:06;;;;;;;0.00;0.00;;;29.20;67.50;;;;;;5093842;28;20216;-63
2023/09/28 11:40:32;;;;;;;0.00;0.00;;;29.30;67.80;;;;;;5094116;28;20188;-62
2023/09/28 11:42:59;;;;;;;0.00;0.00;;;29.40;67.80;;;;;;5094031;28;20180;-62
2023/09/28 11:45:28;;;;;;;0.00;0.00;;;29.30;65.50;;;;;;5094028;28;20229;-62
2023/09/28 11:47:54;;;;;;;0.20;0.20;;;29.40;66.60;;;;;;5093806;28;20183;-62
2023/09/28 11:50:23;;;;;;;0.20;0.10;;;29.50;66.40;;;;;;5093939;28;20768;-62
2023/09/28 11:52:50;;;;;;;0.00;0.00;;;29.40;65.10;;;;;;5093602;28;20540;-62
2023/09/28 11:55:16;;;;;;;0.00;0.00;;;29.40;65.70;;;;;;5093739;28;20234;-62
2023/09/28 11:57:45;;;;;;;0.00;0.00;;;29.50;65.70;;;;;;5093625;28;20639;-63
2023/09/28 12:00:18;;;;;;;0.00;0.00;;;29.50;65.90;;;;;;5093657;28;20164;-63
2023/09/28 12:02:44;;;;;;;0.00;0.00;;;29.60;64.50;;;;;;5093505;28;20718;-62
2023/09/28 12:05:10;;;;;;;0.00;0.00;;;29.70;64.30;;;;;;5093540;28;20374;-62
2023/09/28 12:07:35;;;;;;;0.03;0.03;;;29.80;64.00;;;;;;5093502;28;20273;-63
2023/09/28 12:10:01;;;;;;;0.00;0.00;;;29.80;64.30;;;;;;5093585;28;20194;-62
2023/09/28 12:12:26;;;;;;;0.00;0.00;;;29.80;64.10;;;;;;5093343;28;20177;-62
2023/09/28 12:14:52;;;;;;;0.00;0.00;;;30.00;64.40;;;;;;5093180;28;20207;-63
2023/09/28 12:17:18;;;;;;;0.00;0.00;;;30.00;63.40;;;;;;5093289;28;20188;-62
2023/09/28 12:19:44;;;;;;;0.00;0.00;;;30.00;63.70;;;;;;5093112;28;20211;-62
2023/09/28 12:22:10;;;;;;;0.00;0.00;;;29.90;62.60;;;;;;5092608;28;20564;-62
2023/09/28 12:24:35;;;;;;;0.08;0.08;;;29.80;63.90;;;;;;5093133;28;20575;-62
2023/09/28 12:27:03;;;;;;;0.00;0.00;;;29.50;62.60;;;;;;5093315;28;20337;-62
2023/09/28 12:29:30;;;;;;;0.00;0.00;;;29.10;64.20;;;;;;5092924;28;20168;-63
2023/09/28 12:31:56;;;;;;;0.00;0.00;;;29.00;64.30;;;;;;5092975;28;20176;-62
2023/09/28 12:34:25;;;;;;;0.00;0.00;;;29.10;64.70;;;;;;5092865;28;20249;-63
2023/09/28 12:36:51;;;;;;;0.00;0.00;;;29.20;64.50;;;;;;5092842;28;20271;-62
2023/09/28 12:39:21;;;;;;;0.10;0.00;;;29.40;64.00;;;;;;5092668;28;20223;-62
2023/09/28 12:41:48;;;;;;;0.00;0.00;;;29.40;64.10;;;;;;5092625;28;20187;-62
2023/09/28 12:44:14;;;;;;;0.00;0.00;;;29.20;63.20;;;;;;5092615;28;20190;-62
2023/09/28 12:46:40;;;;;;;0.00;0.00;;;29.10;65.20;;;;;;5092596;28;20176;-62